createdAt,value
2019-06-27T00:01:41.819Z,23.30
2019-06-27T00:06:41.525Z,23.30
2019-06-27T00:11:41.280Z,23.20
2019-06-27T00:16:40.919Z,23.10
2019-06-27T00:21:40.583Z,23.00
2019-06-27T00:26:55.830Z,22.90
2019-06-27T00:31:41.719Z,22.80
2019-06-27T00:36:41.347Z,22.70
2019-06-27T00:41:40.995Z,22.70
2019-06-27T00:46:40.777Z,22.60
2019-06-27T00:51:40.692Z,22.50
2019-06-27T00:56:40.451Z,22.50
2019-06-27T01:01:40.110Z,22.40
2019-06-27T01:06:39.883Z,22.30
2019-06-27T01:11:39.543Z,22.30
2019-06-27T01:16:39.391Z,22.20
2019-06-27T01:21:39.411Z,22.10
2019-06-27T01:26:39.197Z,22.10
2019-06-27T01:31:39.175Z,22.00
2019-06-27T01:36:38.812Z,22.00
2019-06-27T01:41:38.579Z,21.90
2019-06-27T01:46:38.277Z,21.80
2019-06-27T01:51:37.916Z,21.80
2019-06-27T01:56:37.574Z,21.70
2019-06-27T02:01:37.524Z,21.50
2019-06-27T02:06:37.219Z,21.40
2019-06-27T02:11:37.104Z,21.40
2019-06-27T02:16:36.958Z,21.40
2019-06-27T02:21:36.734Z,21.30
2019-06-27T02:26:37.800Z,21.10
2019-06-27T02:31:37.566Z,21.10
2019-06-27T02:36:37.288Z,21.00
2019-06-27T02:41:37.037Z,20.90
2019-06-27T02:46:37.003Z,20.80
2019-06-27T02:51:36.763Z,20.80
2019-06-27T02:56:36.952Z,20.80
2019-06-27T03:01:37.041Z,20.80
2019-06-27T03:06:36.805Z,20.70
2019-06-27T03:11:36.655Z,20.60
2019-06-27T03:16:36.515Z,20.60
2019-06-27T03:21:36.305Z,20.50
2019-06-27T03:26:36.058Z,20.50
2019-06-27T03:31:36.969Z,20.40
2019-06-27T03:36:36.753Z,20.40
2019-06-27T03:41:36.461Z,20.40
2019-06-27T03:46:36.436Z,20.40
2019-06-27T03:51:36.150Z,20.40
2019-06-27T03:56:35.878Z,20.40
2019-06-27T04:01:35.680Z,20.40
2019-06-27T04:06:35.356Z,20.40
2019-06-27T04:11:35.209Z,20.40
2019-06-27T04:16:38.251Z,20.40
2019-06-27T04:21:38.370Z,20.40
2019-06-27T04:26:38.093Z,20.40
2019-06-27T04:31:37.791Z,20.40
2019-06-27T04:36:37.629Z,20.20
2019-06-27T04:41:37.327Z,20.20
2019-06-27T04:46:36.989Z,20.20
2019-06-27T04:51:36.990Z,20.40
2019-06-27T04:56:37.305Z,20.40
2019-06-27T05:01:36.965Z,20.30
2019-06-27T05:06:36.908Z,20.40
2019-06-27T05:11:36.837Z,20.40
2019-06-27T05:16:36.567Z,20.40
2019-06-27T05:21:37.320Z,20.40
2019-06-27T05:26:36.987Z,20.40
2019-06-27T05:31:37.064Z,20.50
2019-06-27T05:36:36.715Z,20.50
2019-06-27T05:41:36.340Z,20.50
2019-06-27T05:46:35.980Z,20.60
2019-06-27T05:51:35.675Z,20.60
2019-06-27T05:56:35.368Z,20.70
2019-06-27T06:01:35.108Z,20.80
2019-06-27T06:06:35.868Z,20.80
2019-06-27T06:11:35.731Z,20.90
2019-06-27T06:16:35.452Z,21.00
2019-06-27T06:21:35.284Z,21.00
2019-06-27T06:26:35.187Z,21.10
2019-06-27T06:31:35.123Z,21.20
2019-06-27T06:36:34.859Z,21.30
2019-06-27T06:41:35.230Z,21.40
2019-06-27T06:46:35.284Z,21.40
2019-06-27T06:51:35.086Z,21.40
2019-06-27T06:56:34.761Z,21.50
2019-06-27T07:01:34.943Z,21.60
2019-06-27T07:06:34.984Z,21.70
2019-06-27T07:11:34.648Z,22.10
2019-06-27T07:16:34.276Z,22.20
2019-06-27T07:21:33.948Z,22.10
2019-06-27T07:26:33.644Z,22.20
2019-06-27T07:31:33.431Z,22.30
2019-06-27T07:36:33.228Z,22.30
2019-06-27T07:41:32.887Z,22.40
2019-06-27T07:46:32.535Z,22.60
2019-06-27T07:51:32.539Z,22.90
2019-06-27T07:56:32.653Z,23.00
2019-06-27T08:01:35.741Z,23.00
2019-06-27T08:06:33.860Z,22.80
2019-06-27T08:11:33.519Z,22.80
2019-06-27T08:16:33.175Z,22.80
2019-06-27T08:21:33.124Z,22.90
2019-06-27T08:26:33.091Z,23.20
2019-06-27T08:31:32.886Z,23.30
2019-06-27T08:36:32.834Z,23.30
2019-06-27T08:41:32.808Z,23.30
2019-06-27T08:46:51.697Z,23.30
2019-06-27T08:51:51.351Z,23.40
2019-06-27T08:56:51.130Z,23.40
2019-06-27T09:02:07.055Z,23.50
2019-06-27T09:06:52.700Z,23.60
2019-06-27T09:11:52.617Z,23.60
2019-06-27T09:16:52.469Z,23.80
2019-06-27T09:21:52.191Z,23.80
2019-06-27T09:26:51.857Z,23.90
2019-06-27T09:31:51.710Z,24.00
2019-06-27T09:36:51.356Z,24.30
2019-06-27T09:41:51.087Z,24.40
2019-06-27T09:46:51.048Z,24.40
2019-06-27T09:51:50.823Z,24.40
2019-06-27T09:56:50.903Z,24.50
2019-06-27T10:01:50.642Z,24.60
2019-06-27T10:06:51.515Z,24.80
2019-06-27T10:11:53.371Z,24.80
2019-06-27T10:16:52.628Z,24.80
2019-06-27T10:21:52.802Z,24.90
2019-06-27T10:26:52.465Z,24.90
2019-06-27T10:31:52.137Z,24.90
2019-06-27T10:36:51.989Z,24.90
2019-06-27T10:41:51.809Z,24.90
2019-06-27T10:46:51.686Z,24.90
2019-06-27T10:51:51.436Z,24.90
2019-06-27T10:56:51.591Z,25.00
2019-06-27T11:01:51.267Z,25.00
2019-06-27T11:06:50.916Z,25.00
2019-06-27T11:11:50.625Z,25.00
2019-06-27T11:16:50.756Z,25.00
2019-06-27T11:21:50.435Z,24.80
2019-06-27T11:26:50.129Z,24.80
2019-06-27T11:31:49.843Z,24.90
2019-06-27T11:36:49.487Z,24.90
2019-06-27T11:41:49.412Z,25.00
2019-06-27T11:46:49.060Z,25.10
2019-06-27T11:51:49.123Z,25.10
2019-06-27T11:56:48.915Z,24.90
2019-06-27T12:01:48.783Z,24.80
2019-06-27T12:06:48.891Z,24.90
2019-06-27T12:11:48.572Z,25.00
2019-06-27T12:16:48.240Z,25.00
2019-06-27T12:21:48.718Z,25.00
2019-06-27T12:26:48.491Z,25.20
2019-06-27T12:31:51.481Z,25.20
2019-06-27T12:36:49.724Z,25.40
2019-06-27T12:41:49.465Z,25.40
2019-06-27T12:46:49.143Z,25.50
2019-06-27T12:51:49.028Z,25.40
2019-06-27T12:56:48.651Z,25.50
2019-06-27T13:01:48.299Z,25.60
2019-06-27T13:06:48.053Z,25.70
2019-06-27T13:11:47.718Z,25.80
2019-06-27T13:16:48.475Z,25.80
2019-06-27T13:21:48.345Z,25.70
2019-06-27T13:26:48.068Z,25.80
2019-06-27T13:31:47.754Z,25.80
2019-06-27T13:36:48.520Z,25.90
2019-06-27T13:41:48.704Z,25.90
2019-06-27T13:46:48.479Z,25.90
2019-06-27T13:51:49.557Z,25.90
2019-06-27T13:56:49.196Z,25.90
2019-06-27T14:01:48.995Z,26.00
2019-06-27T14:06:48.815Z,26.10
2019-06-27T14:11:48.601Z,26.30
2019-06-27T14:16:48.390Z,26.40
2019-06-27T14:21:48.947Z,26.30
2019-06-27T14:26:48.829Z,26.20
2019-06-27T14:31:48.473Z,26.20
2019-06-27T14:36:48.152Z,26.10
2019-06-27T14:41:47.879Z,26.10
2019-06-27T14:46:47.612Z,26.10
2019-06-27T14:51:47.405Z,26.10
2019-06-27T14:56:47.627Z,25.90
2019-06-27T15:01:47.321Z,25.90
2019-06-27T15:06:47.145Z,25.70
2019-06-27T15:11:46.864Z,25.60
2019-06-27T15:16:46.522Z,25.50
2019-06-27T15:21:46.599Z,25.40
2019-06-27T15:26:46.466Z,25.30
2019-06-27T15:31:46.527Z,25.20
2019-06-27T15:36:46.308Z,25.00
2019-06-27T15:41:46.431Z,25.00
2019-06-27T15:46:46.171Z,25.00
2019-06-27T15:51:46.340Z,25.00
2019-06-27T15:56:46.008Z,25.00
2019-06-27T16:01:45.693Z,24.80
2019-06-27T16:06:45.429Z,24.80
2019-06-27T16:11:45.269Z,24.80
2019-06-27T16:16:45.200Z,24.80
2019-06-27T16:21:44.979Z,24.60
2019-06-27T16:26:45.448Z,24.60
2019-06-27T16:31:45.490Z,24.50
2019-06-27T16:36:45.284Z,24.50
2019-06-27T16:41:44.950Z,24.50
2019-06-27T16:46:44.943Z,24.50
2019-06-27T16:51:44.608Z,24.50
2019-06-27T16:56:44.499Z,24.50
2019-06-27T17:01:44.655Z,24.50
2019-06-27T17:06:44.470Z,24.40
2019-06-27T17:11:44.147Z,24.30
2019-06-27T17:16:43.907Z,24.30
2019-06-27T17:21:43.656Z,24.30
2019-06-27T17:26:43.716Z,24.20
2019-06-27T17:31:44.744Z,24.10
2019-06-27T17:36:56.948Z,24.00
2019-06-27T17:41:46.483Z,23.90
2019-06-27T17:46:46.587Z,23.80
2019-06-27T17:51:47.835Z,23.70
2019-06-27T17:56:47.696Z,23.70
2019-06-27T18:01:47.448Z,23.50
2019-06-27T18:06:47.122Z,23.50
2019-06-27T18:11:47.327Z,23.40
2019-06-27T18:16:47.007Z,23.30
2019-06-27T18:21:46.718Z,23.30
2019-06-27T18:26:46.539Z,23.20
2019-06-27T18:31:46.399Z,23.10
2019-06-27T18:36:46.355Z,23.00
2019-06-27T18:41:45.979Z,22.90
2019-06-27T18:46:45.719Z,23.00
2019-06-27T18:51:45.815Z,22.90
2019-06-27T18:56:45.536Z,22.80
2019-06-27T19:01:45.315Z,22.80
2019-06-27T19:06:45.003Z,22.70
2019-06-27T19:11:44.767Z,22.60
2019-06-27T19:16:44.549Z,22.60
2019-06-27T19:21:51.371Z,22.50
2019-06-27T19:26:52.231Z,22.40
2019-06-27T19:31:52.155Z,22.30
2019-06-27T19:36:51.775Z,22.30
2019-06-27T19:41:51.615Z,22.20
2019-06-27T19:46:51.319Z,22.10
2019-06-27T19:51:51.139Z,22.10
2019-06-27T19:56:51.194Z,22.00
2019-06-27T20:01:50.999Z,21.90
2019-06-27T20:06:50.696Z,21.90
2019-06-27T20:11:50.503Z,21.80
2019-06-27T20:16:50.945Z,21.80
2019-06-27T20:21:51.056Z,21.80
2019-06-27T20:26:50.711Z,21.70
2019-06-27T20:31:50.554Z,21.60
2019-06-27T20:36:52.288Z,21.70
2019-06-27T20:41:52.278Z,21.60
2019-06-27T20:46:52.139Z,21.50
2019-06-27T20:51:52.000Z,21.40
2019-06-27T20:56:51.784Z,21.30
2019-06-27T21:01:51.576Z,21.30
2019-06-27T21:06:51.291Z,21.20
2019-06-27T21:11:51.015Z,21.10
2019-06-27T21:16:50.683Z,21.10
2019-06-27T21:21:50.471Z,21.00
2019-06-27T21:26:50.200Z,21.00
2019-06-27T21:32:01.507Z,20.90
2019-06-27T21:37:01.456Z,20.90
2019-06-27T21:42:01.447Z,20.90
2019-06-27T21:47:01.482Z,20.90
2019-06-27T21:52:01.425Z,20.90
2019-06-27T21:57:01.275Z,20.80
2019-06-27T22:02:01.080Z,20.70
2019-06-27T22:07:00.925Z,20.60
2019-06-27T22:12:00.733Z,20.60
2019-06-27T22:17:00.477Z,20.60
2019-06-27T22:22:00.315Z,20.50
2019-06-27T22:27:00.238Z,20.40
2019-06-27T22:32:00.948Z,20.30
2019-06-27T22:37:03.943Z,20.20
2019-06-27T22:42:21.431Z,20.20
2019-06-27T22:47:39.042Z,20.20
2019-06-27T22:53:07.275Z,20.20
2019-06-27T22:58:08.024Z,20.10
2019-06-27T23:03:07.670Z,20.00
2019-06-27T23:08:07.756Z,19.90
2019-06-27T23:13:07.468Z,19.90
2019-06-27T23:18:07.102Z,20.00
2019-06-27T23:23:06.979Z,20.00
2019-06-27T23:28:06.833Z,19.90
2019-06-27T23:33:06.568Z,19.90
2019-06-27T23:38:06.495Z,19.90
2019-06-27T23:43:06.244Z,19.90
2019-06-27T23:48:05.878Z,19.90
2019-06-27T23:53:05.852Z,19.90
2019-06-27T23:58:05.719Z,19.80
